Terminal Aerodrome Forecast
Issued by NWS Springfield, MO

Home | Current Version | Previous Version | Text Only | Print | Product List | Glossary On
Versions: 1 2 3 4 5 6 7 8 9 10 11 12 13 14 15 16 17 18 19 20 21 22
000
FTUS43 KSGF 171100
TAFSGF
TAF
KSGF 171120Z 1712/1812 13008KT P6SM BKN250
     FM171900 13008KT P6SM FEW040 BKN250 PROB30 1721/1801 5SM -TSRA
      BR BKN040CB
     FM180600 14008KT P6SM FEW040 BKN120 PROB30 1808/1812 5SM -TSRA
      BR BKN040CB=

USA.gov is the U.S. government's official web portal to all federal, state and local government web resources and services.